sensor_id;sensor_type;location;lat;lon;timestamp;pressure;altitude;pressure_sealevel;temperature
47484;BMP280;54076;50.322;18.650;2023-03-14T00:02:06;96472.63;;;5.30
47484;BMP280;54076;50.322;18.650;2023-03-14T00:07:10;96467.80;;;5.24
47484;BMP280;54076;50.322;18.650;2023-03-14T00:12:11;96457.21;;;5.32
47484;BMP280;54076;50.322;18.650;2023-03-14T00:17:15;96435.15;;;5.32
47484;BMP280;54076;50.322;18.650;2023-03-14T00:22:16;96437.98;;;5.32
47484;BMP280;54076;50.322;18.650;2023-03-14T00:27:17;96425.11;;;5.41
47484;BMP280;54076;50.322;18.650;2023-03-14T00:32:18;96408.04;;;5.51
47484;BMP280;54076;50.322;18.650;2023-03-14T00:37:19;96398.82;;;5.65
47484;BMP280;54076;50.322;18.650;2023-03-14T00:42:20;96402.23;;;5.64
47484;BMP280;54076;50.322;18.650;2023-03-14T00:47:21;96389.46;;;5.39
47484;BMP280;54076;50.322;18.650;2023-03-14T00:52:22;96381.57;;;5.53
47484;BMP280;54076;50.322;18.650;2023-03-14T00:57:23;96373.80;;;5.54
47484;BMP280;54076;50.322;18.650;2023-03-14T01:02:24;96385.86;;;5.52
47484;BMP280;54076;50.322;18.650;2023-03-14T01:07:26;96372.40;;;5.53
47484;BMP280;54076;50.322;18.650;2023-03-14T01:12:27;96349.89;;;5.62
47484;BMP280;54076;50.322;18.650;2023-03-14T01:17:28;96335.55;;;5.69
47484;BMP280;54076;50.322;18.650;2023-03-14T01:22:29;96322.55;;;5.71
47484;BMP280;54076;50.322;18.650;2023-03-14T01:27:30;96314.70;;;5.73
47484;BMP280;54076;50.322;18.650;2023-03-14T01:32:31;96310.79;;;5.85
47484;BMP280;54076;50.322;18.650;2023-03-14T01:37:32;96316.00;;;5.86
47484;BMP280;54076;50.322;18.650;2023-03-14T01:42:33;96312.06;;;5.88
47484;BMP280;54076;50.322;18.650;2023-03-14T01:47:35;96307.23;;;5.87
47484;BMP280;54076;50.322;18.650;2023-03-14T01:52:44;96305.90;;;5.84
47484;BMP280;54076;50.322;18.650;2023-03-14T01:58:01;96316.22;;;5.73
47484;BMP280;54076;50.322;18.650;2023-03-14T02:03:15;96324.17;;;5.69
47484;BMP280;54076;50.322;18.650;2023-03-14T02:08:19;96334.59;;;5.43
47484;BMP280;54076;50.322;18.650;2023-03-14T02:13:21;96318.16;;;5.29
47484;BMP280;54076;50.322;18.650;2023-03-14T02:18:22;96299.06;;;5.42
47484;BMP280;54076;50.322;18.650;2023-03-14T02:23:52;96282.21;;;5.61
47484;BMP280;54076;50.322;18.650;2023-03-14T02:28:54;96282.39;;;5.76
47484;BMP280;54076;50.322;18.650;2023-03-14T02:33:56;96278.38;;;5.84
47484;BMP280;54076;50.322;18.650;2023-03-14T02:39:13;96276.02;;;5.76
47484;BMP280;54076;50.322;18.650;2023-03-14T02:44:15;96280.58;;;5.72
47484;BMP280;54076;50.322;18.650;2023-03-14T02:49:16;96284.39;;;5.63
47484;BMP280;54076;50.322;18.650;2023-03-14T02:54:19;96275.63;;;5.39
47484;BMP280;54076;50.322;18.650;2023-03-14T02:59:20;96283.30;;;5.34
47484;BMP280;54076;50.322;18.650;2023-03-14T03:04:21;96277.41;;;5.24
47484;BMP280;54076;50.322;18.650;2023-03-14T03:09:22;96282.75;;;5.07
47484;BMP280;54076;50.322;18.650;2023-03-14T03:14:24;96295.98;;;5.05
47484;BMP280;54076;50.322;18.650;2023-03-14T03:19:25;96301.02;;;5.06
47484;BMP280;54076;50.322;18.650;2023-03-14T03:24:26;96339.52;;;4.90
47484;BMP280;54076;50.322;18.650;2023-03-14T03:29:27;96366.84;;;4.73
47484;BMP280;54076;50.322;18.650;2023-03-14T03:34:29;96381.83;;;4.50
47484;BMP280;54076;50.322;18.650;2023-03-14T03:39:30;96374.95;;;4.61
47484;BMP280;54076;50.322;18.650;2023-03-14T03:44:31;96360.69;;;4.60
47484;BMP280;54076;50.322;18.650;2023-03-14T03:49:32;96351.19;;;4.57
47484;BMP280;54076;50.322;18.650;2023-03-14T03:54:33;96337.98;;;4.48
47484;BMP280;54076;50.322;18.650;2023-03-14T03:59:34;96338.34;;;4.56
47484;BMP280;54076;50.322;18.650;2023-03-14T04:04:35;96330.75;;;4.52
47484;BMP280;54076;50.322;18.650;2023-03-14T04:09:38;96329.71;;;4.46
47484;BMP280;54076;50.322;18.650;2023-03-14T04:14:39;96316.73;;;4.62
47484;BMP280;54076;50.322;18.650;2023-03-14T04:19:41;96290.92;;;4.60
47484;BMP280;54076;50.322;18.650;2023-03-14T04:24:43;96290.71;;;4.61
47484;BMP280;54076;50.322;18.650;2023-03-14T04:29:44;96282.42;;;4.69
47484;BMP280;54076;50.322;18.650;2023-03-14T04:34:45;96274.90;;;4.74
47484;BMP280;54076;50.322;18.650;2023-03-14T04:39:46;96265.16;;;4.81
47484;BMP280;54076;50.322;18.650;2023-03-14T04:44:47;96254.58;;;4.73
47484;BMP280;54076;50.322;18.650;2023-03-14T04:49:50;96248.34;;;4.57
47484;BMP280;54076;50.322;18.650;2023-03-14T04:54:51;96241.77;;;4.46
47484;BMP280;54076;50.322;18.650;2023-03-14T04:59:52;96243.85;;;4.46
47484;BMP280;54076;50.322;18.650;2023-03-14T05:04:53;96263.02;;;4.23
47484;BMP280;54076;50.322;18.650;2023-03-14T05:09:54;96250.89;;;4.11
47484;BMP280;54076;50.322;18.650;2023-03-14T05:14:55;96255.47;;;4.03
47484;BMP280;54076;50.322;18.650;2023-03-14T05:19:56;96236.03;;;3.62
47484;BMP280;54076;50.322;18.650;2023-03-14T05:24:57;96216.96;;;3.55
47484;BMP280;54076;50.322;18.650;2023-03-14T05:30:00;96217.54;;;3.63
47484;BMP280;54076;50.322;18.650;2023-03-14T05:35:01;96229.92;;;3.64
47484;BMP280;54076;50.322;18.650;2023-03-14T05:40:03;96240.71;;;3.62
47484;BMP280;54076;50.322;18.650;2023-03-14T05:45:06;96225.84;;;3.56
47484;BMP280;54076;50.322;18.650;2023-03-14T05:50:08;96216.46;;;3.75
47484;BMP280;54076;50.322;18.650;2023-03-14T05:55:09;96196.30;;;3.95
47484;BMP280;54076;50.322;18.650;2023-03-14T06:00:11;96175.75;;;4.13
47484;BMP280;54076;50.322;18.650;2023-03-14T06:05:12;96181.54;;;4.16
47484;BMP280;54076;50.322;18.650;2023-03-14T06:10:13;96177.79;;;4.26
47484;BMP280;54076;50.322;18.650;2023-03-14T06:15:15;96184.83;;;4.38
47484;BMP280;54076;50.322;18.650;2023-03-14T06:20:16;96179.46;;;4.53
47484;BMP280;54076;50.322;18.650;2023-03-14T06:25:17;96149.17;;;4.46
47484;BMP280;54076;50.322;18.650;2023-03-14T06:30:18;96134.73;;;4.63
47484;BMP280;54076;50.322;18.650;2023-03-14T06:35:19;96128.48;;;4.84
47484;BMP280;54076;50.322;18.650;2023-03-14T06:40:21;96139.35;;;5.04
47484;BMP280;54076;50.322;18.650;2023-03-14T06:45:22;96140.94;;;5.19
47484;BMP280;54076;50.322;18.650;2023-03-14T06:50:24;96137.83;;;5.34
47484;BMP280;54076;50.322;18.650;2023-03-14T06:55:25;96119.35;;;5.35
47484;BMP280;54076;50.322;18.650;2023-03-14T07:00:27;96147.95;;;5.58
47484;BMP280;54076;50.322;18.650;2023-03-14T07:05:28;96146.72;;;5.71
47484;BMP280;54076;50.322;18.650;2023-03-14T07:10:29;96159.89;;;5.92
47484;BMP280;54076;50.322;18.650;2023-03-14T07:15:30;96178.39;;;6.05
47484;BMP280;54076;50.322;18.650;2023-03-14T07:20:31;96172.50;;;6.10
47484;BMP280;54076;50.322;18.650;2023-03-14T07:25:33;96185.55;;;6.19
47484;BMP280;54076;50.322;18.650;2023-03-14T07:30:34;96187.14;;;6.31
47484;BMP280;54076;50.322;18.650;2023-03-14T07:35:37;96195.02;;;6.34
47484;BMP280;54076;50.322;18.650;2023-03-14T07:40:38;96199.27;;;6.31
47484;BMP280;54076;50.322;18.650;2023-03-14T07:45:39;96203.35;;;6.22
47484;BMP280;54076;50.322;18.650;2023-03-14T07:50:40;96218.78;;;6.17
47484;BMP280;54076;50.322;18.650;2023-03-14T07:55:41;96217.23;;;6.38
47484;BMP280;54076;50.322;18.650;2023-03-14T08:00:43;96216.23;;;6.48
47484;BMP280;54076;50.322;18.650;2023-03-14T08:05:48;96222.20;;;6.48
47484;BMP280;54076;50.322;18.650;2023-03-14T08:10:50;96223.05;;;6.62
47484;BMP280;54076;50.322;18.650;2023-03-14T08:15:51;96231.95;;;6.82
47484;BMP280;54076;50.322;18.650;2023-03-14T08:20:52;96237.79;;;6.98
47484;BMP280;54076;50.322;18.650;2023-03-14T08:25:53;96235.00;;;7.11
47484;BMP280;54076;50.322;18.650;2023-03-14T08:30:54;96225.14;;;7.46
47484;BMP280;54076;50.322;18.650;2023-03-14T08:35:58;96214.88;;;7.47
47484;BMP280;54076;50.322;18.650;2023-03-14T08:41:02;96217.17;;;7.39
47484;BMP280;54076;50.322;18.650;2023-03-14T08:46:03;96216.21;;;7.28
47484;BMP280;54076;50.322;18.650;2023-03-14T08:51:14;96206.27;;;7.32
47484;BMP280;54076;50.322;18.650;2023-03-14T08:56:15;96211.12;;;7.35
47484;BMP280;54076;50.322;18.650;2023-03-14T09:01:16;96212.92;;;7.31
47484;BMP280;54076;50.322;18.650;2023-03-14T09:06:17;96245.21;;;7.32
47484;BMP280;54076;50.322;18.650;2023-03-14T09:11:18;96248.15;;;7.49
47484;BMP280;54076;50.322;18.650;2023-03-14T09:16:19;96260.64;;;7.57
47484;BMP280;54076;50.322;18.650;2023-03-14T09:21:21;96249.93;;;7.76
47484;BMP280;54076;50.322;18.650;2023-03-14T09:26:22;96258.35;;;7.78
47484;BMP280;54076;50.322;18.650;2023-03-14T09:31:23;96252.27;;;7.83
47484;BMP280;54076;50.322;18.650;2023-03-14T09:36:25;96239.61;;;7.94
47484;BMP280;54076;50.322;18.650;2023-03-14T09:41:31;96232.34;;;8.08
47484;BMP280;54076;50.322;18.650;2023-03-14T09:46:37;96237.95;;;8.09
47484;BMP280;54076;50.322;18.650;2023-03-14T09:51:40;96249.92;;;8.03
47484;BMP280;54076;50.322;18.650;2023-03-14T09:56:43;96230.44;;;8.44
47484;BMP280;54076;50.322;18.650;2023-03-14T10:01:44;96250.04;;;8.60
47484;BMP280;54076;50.322;18.650;2023-03-14T10:06:45;96259.30;;;8.58
47484;BMP280;54076;50.322;18.650;2023-03-14T10:11:47;96254.95;;;8.67
47484;BMP280;54076;50.322;18.650;2023-03-14T10:16:48;96266.89;;;8.32
47484;BMP280;54076;50.322;18.650;2023-03-14T10:21:53;96288.03;;;8.19
47484;BMP280;54076;50.322;18.650;2023-03-14T10:27:02;96276.62;;;8.03
47484;BMP280;54076;50.322;18.650;2023-03-14T10:32:06;96274.98;;;7.98
47484;BMP280;54076;50.322;18.650;2023-03-14T10:37:22;96280.73;;;7.98
47484;BMP280;54076;50.322;18.650;2023-03-14T10:47:34;96269.14;;;7.61
47484;BMP280;54076;50.322;18.650;2023-03-14T10:52:47;96284.22;;;7.48
47484;BMP280;54076;50.322;18.650;2023-03-14T10:57:49;96286.27;;;7.55
47484;BMP280;54076;50.322;18.650;2023-03-14T11:03:17;96293.31;;;7.49
47484;BMP280;54076;50.322;18.650;2023-03-14T11:08:30;96290.61;;;7.43
47484;BMP280;54076;50.322;18.650;2023-03-14T11:13:40;96296.25;;;7.20
47484;BMP280;54076;50.322;18.650;2023-03-14T11:29:24;96286.83;;;6.89
47484;BMP280;54076;50.322;18.650;2023-03-14T11:34:54;96286.41;;;6.63
47484;BMP280;54076;50.322;18.650;2023-03-14T11:40:22;96274.67;;;6.57
47484;BMP280;54076;50.322;18.650;2023-03-14T11:45:38;96278.30;;;6.36
47484;BMP280;54076;50.322;18.650;2023-03-14T11:50:42;96291.19;;;6.22
47484;BMP280;54076;50.322;18.650;2023-03-14T11:55:44;96295.28;;;6.00
47484;BMP280;54076;50.322;18.650;2023-03-14T12:00:50;96286.00;;;5.76
47484;BMP280;54076;50.322;18.650;2023-03-14T12:11:54;96278.55;;;5.68
47484;BMP280;54076;50.322;18.650;2023-03-14T12:17:22;96278.38;;;5.70
47484;BMP280;54076;50.322;18.650;2023-03-14T12:22:35;96279.27;;;5.72
47484;BMP280;54076;50.322;18.650;2023-03-14T12:43:37;96255.83;;;6.20
47484;BMP280;54076;50.322;18.650;2023-03-14T12:48:40;96255.10;;;6.27
47484;BMP280;54076;50.322;18.650;2023-03-14T13:15:44;96226.74;;;6.02
47484;BMP280;54076;50.322;18.650;2023-03-14T13:20:53;96238.55;;;6.03
47484;BMP280;54076;50.322;18.650;2023-03-14T13:25:56;96244.10;;;6.01
47484;BMP280;54076;50.322;18.650;2023-03-14T13:31:02;96252.42;;;5.97
47484;BMP280;54076;50.322;18.650;2023-03-14T13:36:05;96248.73;;;5.96
47484;BMP280;54076;50.322;18.650;2023-03-14T13:41:07;96257.39;;;5.91
47484;BMP280;54076;50.322;18.650;2023-03-14T13:51:19;96277.46;;;5.83
47484;BMP280;54076;50.322;18.650;2023-03-14T13:56:25;96274.88;;;5.72
47484;BMP280;54076;50.322;18.650;2023-03-14T14:06:36;96250.49;;;5.96
47484;BMP280;54076;50.322;18.650;2023-03-14T14:12:08;96255.88;;;6.02
47484;BMP280;54076;50.322;18.650;2023-03-14T14:17:17;96248.40;;;6.09
47484;BMP280;54076;50.322;18.650;2023-03-14T14:22:19;96253.77;;;5.97
47484;BMP280;54076;50.322;18.650;2023-03-14T14:27:29;96247.36;;;6.04
47484;BMP280;54076;50.322;18.650;2023-03-14T14:32:40;96243.23;;;6.16
47484;BMP280;54076;50.322;18.650;2023-03-14T14:37:43;96245.04;;;6.20
47484;BMP280;54076;50.322;18.650;2023-03-14T14:42:45;96251.83;;;6.15
47484;BMP280;54076;50.322;18.650;2023-03-14T14:47:57;96243.55;;;6.09
47484;BMP280;54076;50.322;18.650;2023-03-14T14:53:21;96230.30;;;6.16
47484;BMP280;54076;50.322;18.650;2023-03-14T14:58:33;96221.87;;;6.11
47484;BMP280;54076;50.322;18.650;2023-03-14T15:03:35;96206.65;;;6.05
47484;BMP280;54076;50.322;18.650;2023-03-14T15:08:37;96214.39;;;6.09
47484;BMP280;54076;50.322;18.650;2023-03-14T15:13:38;96208.65;;;6.07
47484;BMP280;54076;50.322;18.650;2023-03-14T15:18:39;96188.04;;;5.97
47484;BMP280;54076;50.322;18.650;2023-03-14T15:23:40;96207.77;;;6.08
47484;BMP280;54076;50.322;18.650;2023-03-14T15:28:41;96193.23;;;5.92
47484;BMP280;54076;50.322;18.650;2023-03-14T15:33:44;96183.59;;;5.90
47484;BMP280;54076;50.322;18.650;2023-03-14T15:38:45;96139.84;;;5.93
47484;BMP280;54076;50.322;18.650;2023-03-14T15:43:47;96153.21;;;6.00
47484;BMP280;54076;50.322;18.650;2023-03-14T15:48:50;96138.52;;;6.02
47484;BMP280;54076;50.322;18.650;2023-03-14T15:53:52;96152.92;;;5.96
47484;BMP280;54076;50.322;18.650;2023-03-14T15:58:53;96160.02;;;5.94
47484;BMP280;54076;50.322;18.650;2023-03-14T16:03:54;96186.80;;;5.92
47484;BMP280;54076;50.322;18.650;2023-03-14T16:08:56;96209.52;;;6.02
47484;BMP280;54076;50.322;18.650;2023-03-14T16:13:58;96224.35;;;5.95
47484;BMP280;54076;50.322;18.650;2023-03-14T16:18:59;96228.23;;;6.06
47484;BMP280;54076;50.322;18.650;2023-03-14T16:24:00;96225.83;;;5.96
47484;BMP280;54076;50.322;18.650;2023-03-14T16:29:02;96217.18;;;5.85
47484;BMP280;54076;50.322;18.650;2023-03-14T16:34:04;96221.42;;;5.81
47484;BMP280;54076;50.322;18.650;2023-03-14T16:39:05;96212.10;;;5.75
47484;BMP280;54076;50.322;18.650;2023-03-14T16:44:06;96215.52;;;5.75
47484;BMP280;54076;50.322;18.650;2023-03-14T16:49:07;96217.67;;;5.71
47484;BMP280;54076;50.322;18.650;2023-03-14T16:54:08;96221.69;;;5.68
47484;BMP280;54076;50.322;18.650;2023-03-14T16:59:09;96213.77;;;5.61
47484;BMP280;54076;50.322;18.650;2023-03-14T17:04:11;96213.38;;;5.57
47484;BMP280;54076;50.322;18.650;2023-03-14T17:09:12;96218.55;;;5.50
47484;BMP280;54076;50.322;18.650;2023-03-14T17:14:13;96223.27;;;5.48
47484;BMP280;54076;50.322;18.650;2023-03-14T17:19:14;96225.89;;;5.41
47484;BMP280;54076;50.322;18.650;2023-03-14T17:24:15;96229.02;;;5.43
47484;BMP280;54076;50.322;18.650;2023-03-14T17:29:16;96232.16;;;5.32
47484;BMP280;54076;50.322;18.650;2023-03-14T17:34:17;96227.95;;;5.39
47484;BMP280;54076;50.322;18.650;2023-03-14T17:39:18;96230.56;;;5.41
47484;BMP280;54076;50.322;18.650;2023-03-14T17:44:19;96228.05;;;5.40
47484;BMP280;54076;50.322;18.650;2023-03-14T17:49:20;96226.33;;;5.38
47484;BMP280;54076;50.322;18.650;2023-03-14T17:54:21;96237.70;;;5.38
47484;BMP280;54076;50.322;18.650;2023-03-14T17:59:22;96245.42;;;5.41
47484;BMP280;54076;50.322;18.650;2023-03-14T18:04:23;96254.14;;;5.40
47484;BMP280;54076;50.322;18.650;2023-03-14T18:09:25;96259.66;;;5.35
47484;BMP280;54076;50.322;18.650;2023-03-14T18:14:26;96275.95;;;5.26
47484;BMP280;54076;50.322;18.650;2023-03-14T18:19:28;96285.05;;;5.20
47484;BMP280;54076;50.322;18.650;2023-03-14T18:24:29;96284.81;;;5.17
47484;BMP280;54076;50.322;18.650;2023-03-14T18:29:30;96292.73;;;5.14
47484;BMP280;54076;50.322;18.650;2023-03-14T18:34:31;96291.20;;;5.04
47484;BMP280;54076;50.322;18.650;2023-03-14T18:39:33;96291.04;;;5.04
47484;BMP280;54076;50.322;18.650;2023-03-14T18:44:34;96303.03;;;5.03
47484;BMP280;54076;50.322;18.650;2023-03-14T18:49:35;96316.17;;;5.01
47484;BMP280;54076;50.322;18.650;2023-03-14T18:54:36;96329.52;;;5.01
47484;BMP280;54076;50.322;18.650;2023-03-14T18:59:37;96330.77;;;4.96
47484;BMP280;54076;50.322;18.650;2023-03-14T19:04:38;96334.45;;;4.97
47484;BMP280;54076;50.322;18.650;2023-03-14T19:09:39;96330.09;;;4.92
47484;BMP280;54076;50.322;18.650;2023-03-14T19:14:41;96321.92;;;4.88
47484;BMP280;54076;50.322;18.650;2023-03-14T19:19:42;96309.30;;;4.88
47484;BMP280;54076;50.322;18.650;2023-03-14T19:24:43;96303.95;;;4.78
47484;BMP280;54076;50.322;18.650;2023-03-14T19:29:44;96303.14;;;4.77
47484;BMP280;54076;50.322;18.650;2023-03-14T19:34:45;96303.30;;;4.68
47484;BMP280;54076;50.322;18.650;2023-03-14T19:39:46;96319.08;;;4.64
47484;BMP280;54076;50.322;18.650;2023-03-14T19:44:47;96325.85;;;4.69
47484;BMP280;54076;50.322;18.650;2023-03-14T19:49:48;96327.07;;;4.62
47484;BMP280;54076;50.322;18.650;2023-03-14T19:54:49;96324.73;;;4.61
47484;BMP280;54076;50.322;18.650;2023-03-14T19:59:50;96328.02;;;4.65
47484;BMP280;54076;50.322;18.650;2023-03-14T20:04:51;96344.25;;;4.67
47484;BMP280;54076;50.322;18.650;2023-03-14T20:09:54;96345.47;;;4.66
47484;BMP280;54076;50.322;18.650;2023-03-14T20:14:55;96341.68;;;4.58
47484;BMP280;54076;50.322;18.650;2023-03-14T20:19:56;96346.68;;;4.63
47484;BMP280;54076;50.322;18.650;2023-03-14T20:24:58;96353.95;;;4.58
47484;BMP280;54076;50.322;18.650;2023-03-14T20:29:59;96368.59;;;4.58
47484;BMP280;54076;50.322;18.650;2023-03-14T20:35:09;96363.94;;;4.54
47484;BMP280;54076;50.322;18.650;2023-03-14T20:40:11;96366.50;;;4.58
47484;BMP280;54076;50.322;18.650;2023-03-14T20:45:14;96366.41;;;4.52
47484;BMP280;54076;50.322;18.650;2023-03-14T20:50:15;96369.66;;;4.51
47484;BMP280;54076;50.322;18.650;2023-03-14T20:55:16;96380.11;;;4.53
47484;BMP280;54076;50.322;18.650;2023-03-14T21:00:18;96373.40;;;4.54
47484;BMP280;54076;50.322;18.650;2023-03-14T21:05:19;96378.69;;;4.47
47484;BMP280;54076;50.322;18.650;2023-03-14T21:10:21;96387.98;;;4.48
47484;BMP280;54076;50.322;18.650;2023-03-14T21:15:22;96394.96;;;4.42
47484;BMP280;54076;50.322;18.650;2023-03-14T21:20:23;96401.25;;;4.35
47484;BMP280;54076;50.322;18.650;2023-03-14T21:25:26;96406.61;;;4.33
47484;BMP280;54076;50.322;18.650;2023-03-14T21:30:29;96411.70;;;4.30
47484;BMP280;54076;50.322;18.650;2023-03-14T21:35:30;96417.41;;;4.28
47484;BMP280;54076;50.322;18.650;2023-03-14T21:40:31;96412.87;;;4.30
47484;BMP280;54076;50.322;18.650;2023-03-14T21:45:32;96409.70;;;4.28
47484;BMP280;54076;50.322;18.650;2023-03-14T21:50:35;96408.02;;;4.23
47484;BMP280;54076;50.322;18.650;2023-03-14T21:55:46;96409.66;;;4.22
47484;BMP280;54076;50.322;18.650;2023-03-14T22:00:47;96414.91;;;4.28
47484;BMP280;54076;50.322;18.650;2023-03-14T22:05:51;96422.73;;;4.33
47484;BMP280;54076;50.322;18.650;2023-03-14T22:10:54;96450.73;;;4.37
47484;BMP280;54076;50.322;18.650;2023-03-14T22:15:55;96498.28;;;4.50
47484;BMP280;54076;50.322;18.650;2023-03-14T22:20:56;96564.25;;;3.51
47484;BMP280;54076;50.322;18.650;2023-03-14T22:25:57;96589.40;;;2.54
47484;BMP280;54076;50.322;18.650;2023-03-14T22:30:59;96608.95;;;2.11
47484;BMP280;54076;50.322;18.650;2023-03-14T22:36:00;96627.71;;;1.72
47484;BMP280;54076;50.322;18.650;2023-03-14T22:41:02;96653.14;;;1.39
47484;BMP280;54076;50.322;18.650;2023-03-14T22:46:06;96669.97;;;1.14
47484;BMP280;54076;50.322;18.650;2023-03-14T22:51:09;96675.05;;;0.92
47484;BMP280;54076;50.322;18.650;2023-03-14T22:56:11;96687.58;;;0.76
47484;BMP280;54076;50.322;18.650;2023-03-14T23:01:13;96704.09;;;0.41
47484;BMP280;54076;50.322;18.650;2023-03-14T23:06:14;96729.39;;;0.24
47484;BMP280;54076;50.322;18.650;2023-03-14T23:11:15;96733.64;;;-0.01
47484;BMP280;54076;50.322;18.650;2023-03-14T23:16:17;96752.35;;;-0.28
47484;BMP280;54076;50.322;18.650;2023-03-14T23:21:21;96764.34;;;-0.44
47484;BMP280;54076;50.322;18.650;2023-03-14T23:26:25;96767.37;;;-0.63
47484;BMP280;54076;50.322;18.650;2023-03-14T23:31:26;96795.37;;;-0.68
47484;BMP280;54076;50.322;18.650;2023-03-14T23:36:28;96827.31;;;-0.72
47484;BMP280;54076;50.322;18.650;2023-03-14T23:41:29;96832.93;;;-0.73
47484;BMP280;54076;50.322;18.650;2023-03-14T23:46:30;96842.45;;;-0.75
47484;BMP280;54076;50.322;18.650;2023-03-14T23:51:31;96859.54;;;-0.72
47484;BMP280;54076;50.322;18.650;2023-03-14T23:56:32;96864.61;;;-0.83
